sensor_id;sensor_type;location;lat;lon;timestamp;P1;P2;P0
53658;PMS5003;41524;35.624;139.698;2023-05-10T00:00:09;27.00;25.00;
53658;PMS5003;41524;35.624;139.698;2023-05-10T00:05:10;21.00;18.00;
53658;PMS5003;41524;35.624;139.698;2023-05-10T00:10:09;22.00;22.00;
53658;PMS5003;41524;35.624;139.698;2023-05-10T00:15:10;26.00;26.00;
53658;PMS5003;41524;35.624;139.698;2023-05-10T00:20:10;27.00;22.00;
53658;PMS5003;41524;35.624;139.698;2023-05-10T00:25:09;26.00;24.00;
53658;PMS5003;41524;35.624;139.698;2023-05-10T00:30:08;29.00;26.00;
53658;PMS5003;41524;35.624;139.698;2023-05-10T00:35:10;30.00;28.00;
53658;PMS5003;41524;35.624;139.698;2023-05-10T00:40:10;28.00;26.00;
53658;PMS5003;41524;35.624;139.698;2023-05-10T00:45:16;29.00;25.00;
53658;PMS5003;41524;35.624;139.698;2023-05-10T00:50:16;26.00;23.00;
53658;PMS5003;41524;35.624;139.698;2023-05-10T00:55:14;26.00;25.00;
53658;PMS5003;41524;35.624;139.698;2023-05-10T01:00:14;33.00;28.00;
53658;PMS5003;41524;35.624;139.698;2023-05-10T01:05:14;27.00;24.00;
53658;PMS5003;41524;35.624;139.698;2023-05-10T01:10:09;33.00;28.00;
53658;PMS5003;41524;35.624;139.698;2023-05-10T01:15:14;28.00;26.00;
53658;PMS5003;41524;35.624;139.698;2023-05-10T01:20:14;30.00;27.00;
53658;PMS5003;41524;35.624;139.698;2023-05-10T01:25:13;33.00;29.00;
53658;PMS5003;41524;35.624;139.698;2023-05-10T01:30:53;33.00;29.00;
53658;PMS5003;41524;35.624;139.698;2023-05-10T01:35:16;34.00;31.00;
53658;PMS5003;41524;35.624;139.698;2023-05-10T01:40:16;28.00;24.00;
53658;PMS5003;41524;35.624;139.698;2023-05-10T01:45:13;31.00;28.00;
53658;PMS5003;41524;35.624;139.698;2023-05-10T01:50:09;23.00;23.00;
53658;PMS5003;41524;35.624;139.698;2023-05-10T01:55:11;26.00;24.00;
53658;PMS5003;41524;35.624;139.698;2023-05-10T02:00:14;31.00;27.00;
53658;PMS5003;41524;35.624;139.698;2023-05-10T02:05:10;28.00;26.00;
53658;PMS5003;41524;35.624;139.698;2023-05-10T02:10:10;22.00;21.00;
53658;PMS5003;41524;35.624;139.698;2023-05-10T02:15:10;24.00;24.00;
53658;PMS5003;41524;35.624;139.698;2023-05-10T02:20:14;28.00;25.00;
53658;PMS5003;41524;35.624;139.698;2023-05-10T02:25:14;36.00;33.00;
53658;PMS5003;41524;35.624;139.698;2023-05-10T02:30:09;34.00;28.00;
53658;PMS5003;41524;35.624;139.698;2023-05-10T02:35:10;31.00;31.00;
53658;PMS5003;41524;35.624;139.698;2023-05-10T02:40:10;25.00;25.00;
53658;PMS5003;41524;35.624;139.698;2023-05-10T02:45:11;28.00;25.00;
53658;PMS5003;41524;35.624;139.698;2023-05-10T02:50:09;27.00;24.00;
53658;PMS5003;41524;35.624;139.698;2023-05-10T02:55:09;26.00;25.00;
53658;PMS5003;41524;35.624;139.698;2023-05-10T03:00:09;26.00;21.00;
53658;PMS5003;41524;35.624;139.698;2023-05-10T03:05:08;29.00;29.00;
53658;PMS5003;41524;35.624;139.698;2023-05-10T03:10:09;32.00;27.00;
53658;PMS5003;41524;35.624;139.698;2023-05-10T03:15:11;32.00;28.00;
53658;PMS5003;41524;35.624;139.698;2023-05-10T03:20:16;30.00;26.00;
53658;PMS5003;41524;35.624;139.698;2023-05-10T03:25:10;34.00;31.00;
53658;PMS5003;41524;35.624;139.698;2023-05-10T03:30:10;35.00;27.00;
53658;PMS5003;41524;35.624;139.698;2023-05-10T03:35:13;39.00;36.00;
53658;PMS5003;41524;35.624;139.698;2023-05-10T03:40:09;34.00;30.00;
53658;PMS5003;41524;35.624;139.698;2023-05-10T03:45:10;29.00;27.00;
53658;PMS5003;41524;35.624;139.698;2023-05-10T03:50:16;29.00;27.00;
53658;PMS5003;41524;35.624;139.698;2023-05-10T03:55:14;32.00;26.00;
53658;PMS5003;41524;35.624;139.698;2023-05-10T04:00:14;24.00;24.00;
53658;PMS5003;41524;35.624;139.698;2023-05-10T04:05:14;30.00;28.00;
53658;PMS5003;41524;35.624;139.698;2023-05-10T04:10:11;29.00;26.00;
53658;PMS5003;41524;35.624;139.698;2023-05-10T04:15:09;26.00;23.00;
53658;PMS5003;41524;35.624;139.698;2023-05-10T04:20:09;22.00;22.00;
53658;PMS5003;41524;35.624;139.698;2023-05-10T04:25:09;21.00;20.00;
53658;PMS5003;41524;35.624;139.698;2023-05-10T04:30:09;24.00;21.00;
53658;PMS5003;41524;35.624;139.698;2023-05-10T04:35:09;26.00;22.00;
53658;PMS5003;41524;35.624;139.698;2023-05-10T04:40:09;22.00;22.00;
53658;PMS5003;41524;35.624;139.698;2023-05-10T04:45:10;26.00;22.00;
53658;PMS5003;41524;35.624;139.698;2023-05-10T04:50:10;34.00;32.00;
53658;PMS5003;41524;35.624;139.698;2023-05-10T04:55:15;21.00;20.00;
53658;PMS5003;41524;35.624;139.698;2023-05-10T05:00:11;25.00;22.00;
53658;PMS5003;41524;35.624;139.698;2023-05-10T05:05:10;19.00;19.00;
53658;PMS5003;41524;35.624;139.698;2023-05-10T05:10:14;15.00;15.00;
53658;PMS5003;41524;35.624;139.698;2023-05-10T05:15:10;25.00;24.00;
53658;PMS5003;41524;35.624;139.698;2023-05-10T05:20:10;19.00;18.00;
53658;PMS5003;41524;35.624;139.698;2023-05-10T05:25:15;16.00;16.00;
53658;PMS5003;41524;35.624;139.698;2023-05-10T05:30:10;15.00;15.00;
53658;PMS5003;41524;35.624;139.698;2023-05-10T05:35:09;18.00;16.00;
53658;PMS5003;41524;35.624;139.698;2023-05-10T05:40:14;19.00;18.00;
53658;PMS5003;41524;35.624;139.698;2023-05-10T05:45:09;17.00;15.00;
53658;PMS5003;41524;35.624;139.698;2023-05-10T05:50:10;17.00;17.00;
53658;PMS5003;41524;35.624;139.698;2023-05-10T05:55:09;15.00;15.00;
53658;PMS5003;41524;35.624;139.698;2023-05-10T06:00:14;16.00;15.00;
53658;PMS5003;41524;35.624;139.698;2023-05-10T06:05:11;18.00;15.00;
53658;PMS5003;41524;35.624;139.698;2023-05-10T06:10:10;16.00;15.00;
53658;PMS5003;41524;35.624;139.698;2023-05-10T06:15:10;21.00;18.00;
53658;PMS5003;41524;35.624;139.698;2023-05-10T06:20:10;21.00;20.00;
53658;PMS5003;41524;35.624;139.698;2023-05-10T06:25:10;18.00;17.00;
53658;PMS5003;41524;35.624;139.698;2023-05-10T06:30:09;21.00;21.00;
53658;PMS5003;41524;35.624;139.698;2023-05-10T06:35:09;20.00;18.00;
53658;PMS5003;41524;35.624;139.698;2023-05-10T06:40:09;17.00;16.00;
53658;PMS5003;41524;35.624;139.698;2023-05-10T06:45:09;20.00;18.00;
53658;PMS5003;41524;35.624;139.698;2023-05-10T06:50:13;22.00;18.00;
53658;PMS5003;41524;35.624;139.698;2023-05-10T06:55:10;17.00;17.00;
53658;PMS5003;41524;35.624;139.698;2023-05-10T07:00:11;20.00;18.00;
53658;PMS5003;41524;35.624;139.698;2023-05-10T07:05:09;18.00;18.00;
53658;PMS5003;41524;35.624;139.698;2023-05-10T07:10:10;26.00;25.00;
53658;PMS5003;41524;35.624;139.698;2023-05-10T07:15:18;29.00;28.00;
53658;PMS5003;41524;35.624;139.698;2023-05-10T07:20:14;30.00;29.00;
53658;PMS5003;41524;35.624;139.698;2023-05-10T07:25:09;35.00;25.00;
53658;PMS5003;41524;35.624;139.698;2023-05-10T07:30:11;25.00;24.00;
53658;PMS5003;41524;35.624;139.698;2023-05-10T07:35:09;23.00;22.00;
53658;PMS5003;41524;35.624;139.698;2023-05-10T07:40:10;26.00;23.00;
53658;PMS5003;41524;35.624;139.698;2023-05-10T07:45:09;29.00;28.00;
53658;PMS5003;41524;35.624;139.698;2023-05-10T07:50:14;24.00;22.00;
53658;PMS5003;41524;35.624;139.698;2023-05-10T07:55:15;22.00;21.00;
53658;PMS5003;41524;35.624;139.698;2023-05-10T08:00:11;24.00;19.00;
53658;PMS5003;41524;35.624;139.698;2023-05-10T08:05:10;22.00;20.00;
53658;PMS5003;41524;35.624;139.698;2023-05-10T08:10:16;30.00;30.00;
53658;PMS5003;41524;35.624;139.698;2023-05-10T08:15:14;31.00;30.00;
53658;PMS5003;41524;35.624;139.698;2023-05-10T08:20:14;26.00;26.00;
53658;PMS5003;41524;35.624;139.698;2023-05-10T08:25:12;28.00;25.00;
53658;PMS5003;41524;35.624;139.698;2023-05-10T08:30:14;24.00;24.00;
53658;PMS5003;41524;35.624;139.698;2023-05-10T08:35:11;28.00;27.00;
53658;PMS5003;41524;35.624;139.698;2023-05-10T08:40:09;30.00;26.00;
53658;PMS5003;41524;35.624;139.698;2023-05-10T08:45:09;31.00;29.00;
53658;PMS5003;41524;35.624;139.698;2023-05-10T08:50:10;30.00;28.00;
53658;PMS5003;41524;35.624;139.698;2023-05-10T08:55:14;29.00;27.00;
53658;PMS5003;41524;35.624;139.698;2023-05-10T09:00:09;28.00;28.00;
53658;PMS5003;41524;35.624;139.698;2023-05-10T09:05:20;34.00;29.00;
53658;PMS5003;41524;35.624;139.698;2023-05-10T09:10:14;37.00;32.00;
53658;PMS5003;41524;35.624;139.698;2023-05-10T09:15:09;27.00;27.00;
53658;PMS5003;41524;35.624;139.698;2023-05-10T09:20:14;27.00;27.00;
53658;PMS5003;41524;35.624;139.698;2023-05-10T09:25:10;27.00;27.00;
53658;PMS5003;41524;35.624;139.698;2023-05-10T09:30:15;28.00;27.00;
53658;PMS5003;41524;35.624;139.698;2023-05-10T09:35:14;40.00;33.00;
53658;PMS5003;41524;35.624;139.698;2023-05-10T09:40:12;25.00;25.00;
53658;PMS5003;41524;35.624;139.698;2023-05-10T09:45:09;30.00;29.00;
53658;PMS5003;41524;35.624;139.698;2023-05-10T09:50:11;22.00;21.00;
53658;PMS5003;41524;35.624;139.698;2023-05-10T09:55:09;34.00;31.00;
53658;PMS5003;41524;35.624;139.698;2023-05-10T10:00:10;32.00;29.00;
53658;PMS5003;41524;35.624;139.698;2023-05-10T10:05:14;27.00;23.00;
53658;PMS5003;41524;35.624;139.698;2023-05-10T10:10:14;27.00;24.00;
53658;PMS5003;41524;35.624;139.698;2023-05-10T10:15:11;26.00;22.00;
53658;PMS5003;41524;35.624;139.698;2023-05-10T10:20:20;26.00;24.00;
53658;PMS5003;41524;35.624;139.698;2023-05-10T10:25:19;32.00;28.00;
53658;PMS5003;41524;35.624;139.698;2023-05-10T10:30:20;26.00;24.00;
53658;PMS5003;41524;35.624;139.698;2023-05-10T10:35:08;25.00;24.00;
53658;PMS5003;41524;35.624;139.698;2023-05-10T10:40:31;28.00;25.00;
53658;PMS5003;41524;35.624;139.698;2023-05-10T10:45:14;19.00;18.00;
53658;PMS5003;41524;35.624;139.698;2023-05-10T10:50:19;23.00;21.00;
53658;PMS5003;41524;35.624;139.698;2023-05-10T10:55:10;31.00;29.00;
53658;PMS5003;41524;35.624;139.698;2023-05-10T11:00:25;21.00;20.00;
53658;PMS5003;41524;35.624;139.698;2023-05-10T11:05:37;24.00;24.00;
53658;PMS5003;41524;35.624;139.698;2023-05-10T11:10:14;30.00;28.00;
53658;PMS5003;41524;35.624;139.698;2023-05-10T11:15:10;25.00;24.00;
53658;PMS5003;41524;35.624;139.698;2023-05-10T11:20:14;19.00;19.00;
53658;PMS5003;41524;35.624;139.698;2023-05-10T11:25:09;22.00;22.00;
53658;PMS5003;41524;35.624;139.698;2023-05-10T11:30:13;24.00;23.00;
53658;PMS5003;41524;35.624;139.698;2023-05-10T11:35:11;17.00;17.00;
53658;PMS5003;41524;35.624;139.698;2023-05-10T11:40:09;24.00;24.00;
53658;PMS5003;41524;35.624;139.698;2023-05-10T11:45:10;20.00;18.00;
53658;PMS5003;41524;35.624;139.698;2023-05-10T11:50:10;27.00;26.00;
53658;PMS5003;41524;35.624;139.698;2023-05-10T11:55:15;20.00;17.00;
53658;PMS5003;41524;35.624;139.698;2023-05-10T12:00:15;25.00;23.00;
53658;PMS5003;41524;35.624;139.698;2023-05-10T12:05:10;23.00;21.00;
53658;PMS5003;41524;35.624;139.698;2023-05-10T12:10:14;29.00;25.00;
53658;PMS5003;41524;35.624;139.698;2023-05-10T12:15:11;26.00;26.00;
53658;PMS5003;41524;35.624;139.698;2023-05-10T12:20:14;27.00;26.00;
53658;PMS5003;41524;35.624;139.698;2023-05-10T12:25:10;18.00;18.00;
53658;PMS5003;41524;35.624;139.698;2023-05-10T12:30:10;23.00;22.00;
53658;PMS5003;41524;35.624;139.698;2023-05-10T12:35:14;23.00;20.00;
53658;PMS5003;41524;35.624;139.698;2023-05-10T12:40:09;24.00;21.00;
53658;PMS5003;41524;35.624;139.698;2023-05-10T12:50:09;28.00;27.00;
53658;PMS5003;41524;35.624;139.698;2023-05-10T12:55:09;26.00;24.00;
53658;PMS5003;41524;35.624;139.698;2023-05-10T13:00:09;29.00;26.00;
53658;PMS5003;41524;35.624;139.698;2023-05-10T13:05:14;25.00;24.00;
53658;PMS5003;41524;35.624;139.698;2023-05-10T13:10:09;26.00;24.00;
53658;PMS5003;41524;35.624;139.698;2023-05-10T13:15:10;28.00;24.00;
53658;PMS5003;41524;35.624;139.698;2023-05-10T13:20:10;34.00;31.00;
53658;PMS5003;41524;35.624;139.698;2023-05-10T13:25:09;40.00;36.00;
53658;PMS5003;41524;35.624;139.698;2023-05-10T13:30:10;34.00;29.00;
53658;PMS5003;41524;35.624;139.698;2023-05-10T13:35:09;31.00;31.00;
53658;PMS5003;41524;35.624;139.698;2023-05-10T13:40:08;37.00;33.00;
53658;PMS5003;41524;35.624;139.698;2023-05-10T13:45:10;32.00;31.00;
53658;PMS5003;41524;35.624;139.698;2023-05-10T13:50:17;26.00;25.00;
53658;PMS5003;41524;35.624;139.698;2023-05-10T13:55:08;23.00;19.00;
53658;PMS5003;41524;35.624;139.698;2023-05-10T14:00:14;28.00;27.00;
53658;PMS5003;41524;35.624;139.698;2023-05-10T14:05:09;22.00;21.00;
53658;PMS5003;41524;35.624;139.698;2023-05-10T14:10:10;27.00;25.00;
53658;PMS5003;41524;35.624;139.698;2023-05-10T14:15:13;31.00;27.00;
53658;PMS5003;41524;35.624;139.698;2023-05-10T14:20:11;25.00;25.00;
53658;PMS5003;41524;35.624;139.698;2023-05-10T14:25:14;27.00;23.00;
53658;PMS5003;41524;35.624;139.698;2023-05-10T14:30:10;25.00;24.00;
53658;PMS5003;41524;35.624;139.698;2023-05-10T14:35:11;22.00;22.00;
53658;PMS5003;41524;35.624;139.698;2023-05-10T14:40:11;22.00;21.00;
53658;PMS5003;41524;35.624;139.698;2023-05-10T14:45:10;28.00;27.00;
53658;PMS5003;41524;35.624;139.698;2023-05-10T14:50:14;28.00;27.00;
53658;PMS5003;41524;35.624;139.698;2023-05-10T14:55:10;22.00;20.00;
53658;PMS5003;41524;35.624;139.698;2023-05-10T15:00:09;25.00;20.00;
53658;PMS5003;41524;35.624;139.698;2023-05-10T15:05:09;22.00;22.00;
53658;PMS5003;41524;35.624;139.698;2023-05-10T15:10:10;27.00;23.00;
53658;PMS5003;41524;35.624;139.698;2023-05-10T15:15:10;23.00;22.00;
53658;PMS5003;41524;35.624;139.698;2023-05-10T15:20:13;22.00;22.00;
53658;PMS5003;41524;35.624;139.698;2023-05-10T15:25:09;20.00;19.00;
53658;PMS5003;41524;35.624;139.698;2023-05-10T15:30:11;30.00;27.00;
53658;PMS5003;41524;35.624;139.698;2023-05-10T15:35:10;26.00;22.00;
53658;PMS5003;41524;35.624;139.698;2023-05-10T15:40:11;20.00;20.00;
53658;PMS5003;41524;35.624;139.698;2023-05-10T15:45:09;20.00;17.00;
53658;PMS5003;41524;35.624;139.698;2023-05-10T15:50:20;18.00;18.00;
53658;PMS5003;41524;35.624;139.698;2023-05-10T15:55:09;22.00;21.00;
53658;PMS5003;41524;35.624;139.698;2023-05-10T16:00:14;26.00;25.00;
53658;PMS5003;41524;35.624;139.698;2023-05-10T16:05:12;28.00;27.00;
53658;PMS5003;41524;35.624;139.698;2023-05-10T16:10:10;29.00;27.00;
53658;PMS5003;41524;35.624;139.698;2023-05-10T16:15:10;25.00;23.00;
53658;PMS5003;41524;35.624;139.698;2023-05-10T16:20:10;24.00;24.00;
53658;PMS5003;41524;35.624;139.698;2023-05-10T16:25:09;20.00;20.00;
53658;PMS5003;41524;35.624;139.698;2023-05-10T16:30:14;24.00;24.00;
53658;PMS5003;41524;35.624;139.698;2023-05-10T16:35:10;28.00;24.00;
53658;PMS5003;41524;35.624;139.698;2023-05-10T16:40:10;25.00;24.00;
53658;PMS5003;41524;35.624;139.698;2023-05-10T16:45:08;32.00;27.00;
53658;PMS5003;41524;35.624;139.698;2023-05-10T16:50:10;22.00;19.00;
53658;PMS5003;41524;35.624;139.698;2023-05-10T16:55:10;30.00;27.00;
53658;PMS5003;41524;35.624;139.698;2023-05-10T17:00:09;20.00;18.00;
53658;PMS5003;41524;35.624;139.698;2023-05-10T17:05:09;25.00;21.00;
53658;PMS5003;41524;35.624;139.698;2023-05-10T17:10:09;20.00;19.00;
53658;PMS5003;41524;35.624;139.698;2023-05-10T17:15:09;23.00;23.00;
53658;PMS5003;41524;35.624;139.698;2023-05-10T17:20:09;23.00;19.00;
53658;PMS5003;41524;35.624;139.698;2023-05-10T17:25:10;21.00;21.00;
53658;PMS5003;41524;35.624;139.698;2023-05-10T17:30:10;25.00;23.00;
53658;PMS5003;41524;35.624;139.698;2023-05-10T17:35:11;22.00;21.00;
53658;PMS5003;41524;35.624;139.698;2023-05-10T17:40:09;29.00;26.00;
53658;PMS5003;41524;35.624;139.698;2023-05-10T17:45:10;19.00;19.00;
53658;PMS5003;41524;35.624;139.698;2023-05-10T17:50:34;24.00;23.00;
53658;PMS5003;41524;35.624;139.698;2023-05-10T17:55:16;29.00;29.00;
53658;PMS5003;41524;35.624;139.698;2023-05-10T18:00:10;35.00;29.00;
53658;PMS5003;41524;35.624;139.698;2023-05-10T18:05:09;22.00;20.00;
53658;PMS5003;41524;35.624;139.698;2023-05-10T18:10:10;21.00;19.00;
53658;PMS5003;41524;35.624;139.698;2023-05-10T18:15:09;18.00;16.00;
53658;PMS5003;41524;35.624;139.698;2023-05-10T18:20:09;25.00;21.00;
53658;PMS5003;41524;35.624;139.698;2023-05-10T18:25:10;25.00;22.00;
53658;PMS5003;41524;35.624;139.698;2023-05-10T18:30:10;16.00;16.00;
53658;PMS5003;41524;35.624;139.698;2023-05-10T18:35:10;25.00;22.00;
53658;PMS5003;41524;35.624;139.698;2023-05-10T18:40:09;24.00;24.00;
53658;PMS5003;41524;35.624;139.698;2023-05-10T18:45:09;20.00;18.00;
53658;PMS5003;41524;35.624;139.698;2023-05-10T18:50:09;23.00;18.00;
53658;PMS5003;41524;35.624;139.698;2023-05-10T18:55:10;16.00;16.00;
53658;PMS5003;41524;35.624;139.698;2023-05-10T19:00:14;18.00;18.00;
53658;PMS5003;41524;35.624;139.698;2023-05-10T19:05:12;13.00;13.00;
53658;PMS5003;41524;35.624;139.698;2023-05-10T19:10:09;13.00;13.00;
53658;PMS5003;41524;35.624;139.698;2023-05-10T19:15:09;15.00;14.00;
53658;PMS5003;41524;35.624;139.698;2023-05-10T19:20:13;17.00;17.00;
53658;PMS5003;41524;35.624;139.698;2023-05-10T19:25:14;17.00;17.00;
53658;PMS5003;41524;35.624;139.698;2023-05-10T19:30:16;16.00;15.00;
53658;PMS5003;41524;35.624;139.698;2023-05-10T19:35:09;12.00;12.00;
53658;PMS5003;41524;35.624;139.698;2023-05-10T19:40:10;17.00;15.00;
53658;PMS5003;41524;35.624;139.698;2023-05-10T19:45:14;19.00;16.00;
53658;PMS5003;41524;35.624;139.698;2023-05-10T19:50:10;15.00;15.00;
53658;PMS5003;41524;35.624;139.698;2023-05-10T19:55:18;20.00;17.00;
53658;PMS5003;41524;35.624;139.698;2023-05-10T20:00:13;20.00;20.00;
53658;PMS5003;41524;35.624;139.698;2023-05-10T20:05:14;17.00;16.00;
53658;PMS5003;41524;35.624;139.698;2023-05-10T20:10:12;18.00;18.00;
53658;PMS5003;41524;35.624;139.698;2023-05-10T20:15:09;16.00;16.00;
53658;PMS5003;41524;35.624;139.698;2023-05-10T20:20:10;21.00;19.00;
53658;PMS5003;41524;35.624;139.698;2023-05-10T20:25:09;14.00;13.00;
53658;PMS5003;41524;35.624;139.698;2023-05-10T20:30:10;17.00;15.00;
53658;PMS5003;41524;35.624;139.698;2023-05-10T20:35:09;20.00;20.00;
53658;PMS5003;41524;35.624;139.698;2023-05-10T20:40:14;18.00;18.00;
53658;PMS5003;41524;35.624;139.698;2023-05-10T20:45:14;20.00;18.00;
53658;PMS5003;41524;35.624;139.698;2023-05-10T20:50:10;16.00;15.00;
53658;PMS5003;41524;35.624;139.698;2023-05-10T20:55:11;18.00;15.00;
53658;PMS5003;41524;35.624;139.698;2023-05-10T21:00:19;15.00;15.00;
53658;PMS5003;41524;35.624;139.698;2023-05-10T21:05:09;19.00;18.00;
53658;PMS5003;41524;35.624;139.698;2023-05-10T21:10:09;16.00;14.00;
53658;PMS5003;41524;35.624;139.698;2023-05-10T21:15:11;13.00;13.00;
53658;PMS5003;41524;35.624;139.698;2023-05-10T21:20:10;18.00;18.00;
53658;PMS5003;41524;35.624;139.698;2023-05-10T21:25:10;14.00;14.00;
53658;PMS5003;41524;35.624;139.698;2023-05-10T21:30:14;22.00;22.00;
53658;PMS5003;41524;35.624;139.698;2023-05-10T21:35:10;14.00;14.00;
53658;PMS5003;41524;35.624;139.698;2023-05-10T21:40:15;14.00;14.00;
53658;PMS5003;41524;35.624;139.698;2023-05-10T21:45:10;20.00;17.00;
53658;PMS5003;41524;35.624;139.698;2023-05-10T21:50:10;17.00;16.00;
53658;PMS5003;41524;35.624;139.698;2023-05-10T21:55:15;16.00;15.00;
53658;PMS5003;41524;35.624;139.698;2023-05-10T22:00:10;16.00;13.00;
53658;PMS5003;41524;35.624;139.698;2023-05-10T22:05:09;14.00;13.00;
53658;PMS5003;41524;35.624;139.698;2023-05-10T22:10:14;17.00;15.00;
53658;PMS5003;41524;35.624;139.698;2023-05-10T22:15:20;18.00;17.00;
53658;PMS5003;41524;35.624;139.698;2023-05-10T22:20:09;17.00;14.00;
53658;PMS5003;41524;35.624;139.698;2023-05-10T22:25:09;17.00;17.00;
53658;PMS5003;41524;35.624;139.698;2023-05-10T22:30:15;16.00;12.00;
53658;PMS5003;41524;35.624;139.698;2023-05-10T22:35:10;21.00;19.00;
53658;PMS5003;41524;35.624;139.698;2023-05-10T22:40:14;19.00;19.00;
53658;PMS5003;41524;35.624;139.698;2023-05-10T22:45:10;23.00;22.00;
53658;PMS5003;41524;35.624;139.698;2023-05-10T22:50:09;14.00;13.00;
53658;PMS5003;41524;35.624;139.698;2023-05-10T22:55:09;22.00;17.00;
53658;PMS5003;41524;35.624;139.698;2023-05-10T23:00:15;14.00;13.00;
53658;PMS5003;41524;35.624;139.698;2023-05-10T23:05:14;25.00;24.00;
53658;PMS5003;41524;35.624;139.698;2023-05-10T23:10:14;18.00;18.00;
53658;PMS5003;41524;35.624;139.698;2023-05-10T23:15:10;16.00;15.00;
53658;PMS5003;41524;35.624;139.698;2023-05-10T23:20:10;17.00;14.00;
53658;PMS5003;41524;35.624;139.698;2023-05-10T23:25:09;15.00;12.00;
53658;PMS5003;41524;35.624;139.698;2023-05-10T23:30:10;11.00;11.00;
53658;PMS5003;41524;35.624;139.698;2023-05-10T23:35:09;18.00;17.00;
53658;PMS5003;41524;35.624;139.698;2023-05-10T23:40:09;19.00;17.00;
53658;PMS5003;41524;35.624;139.698;2023-05-10T23:45:08;19.00;19.00;
53658;PMS5003;41524;35.624;139.698;2023-05-10T23:50:10;19.00;16.00;
53658;PMS5003;41524;35.624;139.698;2023-05-10T23:55:09;13.00;13.00;
